Time;durP1;ratioP1;P1;durP2;ratioP2;P2;SDS_P1;SDS_P2;PMS_P1;PMS_P2;Temp;Humidity;BMP_temperature;BMP_pressure;BME280_temperature;BME280_humidity;BME280_pressure;Samples;Min_cycle;Max_cycle;Signal;HPM_P1;HPM_P2
2020/12/26 00:00:57;;;;;;;0.47;0.20;;;20.30;42.10;;;;;;5036256;28;20124;-81
2020/12/26 00:03:23;;;;;;;0.80;0.20;;;20.30;42.10;;;;;;5015976;28;20093;-82
2020/12/26 00:05:48;;;;;;;0.50;0.20;;;20.30;42.10;;;;;;5034620;28;20029;-82
2020/12/26 00:08:14;;;;;;;0.65;0.20;;;20.30;42.20;;;;;;5012879;28;20490;-83
2020/12/26 00:10:40;;;;;;;0.77;0.20;;;20.30;42.20;;;;;;5017239;28;20113;-80
2020/12/26 00:13:05;;;;;;;0.60;0.20;;;20.30;42.20;;;;;;5028028;28;20064;-82
2020/12/26 00:15:31;;;;;;;0.60;0.20;;;20.30;42.20;;;;;;5011703;28;20033;-82
2020/12/26 00:17:56;;;;;;;0.30;0.10;;;20.30;42.20;;;;;;5017193;28;20063;-81
2020/12/26 00:20:22;;;;;;;0.70;0.20;;;20.30;42.20;;;;;;5037974;28;20036;-81
2020/12/26 00:22:48;;;;;;;0.50;0.20;;;20.30;42.20;;;;;;5038168;28;20029;-81
2020/12/26 00:25:13;;;;;;;1.05;0.20;;;20.20;42.20;;;;;;5030467;28;20032;-83
2020/12/26 00:27:39;;;;;;;0.70;0.25;;;20.20;42.30;;;;;;5010450;28;20025;-79
2020/12/26 00:30:06;;;;;;;1.70;0.25;;;20.20;42.30;;;;;;5049249;28;20056;-80
2020/12/26 00:32:32;;;;;;;0.82;0.22;;;20.20;42.30;;;;;;5048653;28;20077;-79
2020/12/26 00:34:58;;;;;;;0.70;0.20;;;20.20;42.30;;;;;;5045203;28;20021;-80
2020/12/26 00:37:23;;;;;;;0.85;0.30;;;20.20;42.30;;;;;;5046447;28;20033;-79
2020/12/26 00:39:49;;;;;;;0.47;0.20;;;20.20;42.30;;;;;;5034468;28;20037;-80
2020/12/26 00:42:14;;;;;;;0.75;0.20;;;20.20;42.30;;;;;;5041727;28;20044;-80
2020/12/26 00:44:40;;;;;;;0.40;0.13;;;20.20;42.30;;;;;;5056385;28;20080;-80
2020/12/26 00:47:05;;;;;;;0.60;0.20;;;20.20;42.30;;;;;;5018068;28;20363;-80
2020/12/26 00:49:31;;;;;;;0.60;0.20;;;20.20;42.20;;;;;;5011138;28;20025;-80
2020/12/26 00:51:56;;;;;;;1.55;0.35;;;20.20;42.10;;;;;;5005964;28;20065;-80
2020/12/26 00:54:22;;;;;;;2.63;0.30;;;20.10;42.20;;;;;;5038726;28;20036;-82
2020/12/26 00:56:48;;;;;;;1.17;0.40;;;20.10;42.20;;;;;;5042567;28;20033;-81
2020/12/26 00:59:13;;;;;;;1.00;0.20;;;20.10;42.30;;;;;;5041986;28;20039;-82
2020/12/26 01:01:39;;;;;;;0.60;0.20;;;20.10;42.30;;;;;;5020361;28;20091;-82
2020/12/26 01:04:04;;;;;;;0.55;0.20;;;20.10;42.20;;;;;;5031246;28;20081;-82
2020/12/26 01:06:30;;;;;;;1.73;0.40;;;20.10;42.20;;;;;;5009966;28;20124;-80
2020/12/26 01:08:55;;;;;;;0.65;0.15;;;20.10;42.30;;;;;;5014621;28;20032;-83
2020/12/26 01:11:21;;;;;;;1.95;0.20;;;20.10;42.30;;;;;;5004628;28;20041;-81
2020/12/26 01:13:47;;;;;;;1.08;0.30;;;20.10;42.40;;;;;;5033137;28;20029;-81
2020/12/26 01:16:13;;;;;;;5.88;0.25;;;20.10;42.40;;;;;;5021393;28;20032;-81
2020/12/26 01:18:40;;;;;;;0.70;0.28;;;20.10;42.30;;;;;;5023387;28;20115;-81
2020/12/26 01:21:07;;;;;;;1.05;0.20;;;20.10;42.30;;;;;;5039302;28;20029;-81
2020/12/26 01:23:36;;;;;;;0.50;0.10;;;20.00;42.30;;;;;;5039426;28;20040;-82
2020/12/26 01:26:01;;;;;;;0.80;0.20;;;20.10;42.30;;;;;;5023255;28;20384;-81
2020/12/26 01:28:27;;;;;;;0.65;0.15;;;20.10;42.40;;;;;;5023245;28;20025;-81
2020/12/26 01:30:53;;;;;;;0.70;0.20;;;20.00;42.40;;;;;;5018772;28;20119;-80
2020/12/26 01:33:19;;;;;;;0.98;0.20;;;20.00;42.30;;;;;;5040226;28;20071;-81
2020/12/26 01:35:45;;;;;;;1.58;0.20;;;20.00;42.40;;;;;;5037176;28;20047;-80
2020/12/26 01:38:10;;;;;;;0.68;0.10;;;20.00;42.40;;;;;;5014955;28;20029;-81
2020/12/26 01:40:36;;;;;;;0.80;0.20;;;20.00;42.40;;;;;;5011280;28;20036;-81
2020/12/26 01:43:05;;;;;;;0.35;0.10;;;20.00;42.40;;;;;;5016893;28;20064;-80
2020/12/26 01:45:31;;;;;;;0.80;0.22;;;20.00;42.40;;;;;;5011188;28;20196;-82
2020/12/26 01:47:57;;;;;;;0.40;0.13;;;20.00;42.40;;;;;;5013106;28;20041;-82
2020/12/26 01:50:23;;;;;;;0.85;0.20;;;20.00;42.40;;;;;;5021749;28;20021;-82
2020/12/26 01:52:50;;;;;;;1.08;0.30;;;20.00;42.40;;;;;;5013502;28;20028;-82
2020/12/26 01:55:16;;;;;;;0.70;0.13;;;20.00;42.40;;;;;;5023180;28;20021;-82
2020/12/26 01:57:52;;;;;;;0.40;0.15;;;20.00;42.40;;;;;;5021904;28;20046;-83
2020/12/26 02:00:19;;;;;;;0.63;0.20;;;19.90;42.40;;;;;;5014370;28;20025;-82
2020/12/26 02:02:49;;;;;;;1.23;0.20;;;20.00;42.40;;;;;;5052375;28;20223;-81
2020/12/26 02:05:15;;;;;;;0.70;0.20;;;19.90;42.40;;;;;;5016890;28;20032;-81
2020/12/26 02:07:44;;;;;;;0.47;0.10;;;19.90;42.40;;;;;;5033842;28;20083;-84
2020/12/26 02:10:10;;;;;;;0.70;0.20;;;19.90;42.40;;;;;;5019230;28;20028;-83
2020/12/26 02:12:35;;;;;;;0.90;0.13;;;19.90;42.40;;;;;;5036328;28;20051;-84
2020/12/26 02:15:01;;;;;;;0.85;0.20;;;19.90;42.30;;;;;;5014543;28;20087;-82
2020/12/26 02:17:27;;;;;;;0.40;0.20;;;19.90;42.70;;;;;;5002274;28;20059;-83
2020/12/26 02:19:53;;;;;;;0.63;0.20;;;19.90;42.20;;;;;;5011697;28;20112;-83
2020/12/26 02:22:19;;;;;;;0.80;0.20;;;19.90;42.20;;;;;;5033908;28;20057;-83
2020/12/26 02:24:45;;;;;;;0.93;0.20;;;19.90;42.20;;;;;;5012022;28;20125;-82
2020/12/26 02:27:10;;;;;;;0.88;0.30;;;19.90;42.30;;;;;;5005314;28;20039;-83
2020/12/26 02:29:36;;;;;;;0.70;0.20;;;19.90;42.30;;;;;;5016920;28;20017;-81
2020/12/26 02:32:03;;;;;;;1.33;0.17;;;19.90;42.30;;;;;;5037457;28;20036;-83
2020/12/26 02:34:28;;;;;;;0.32;0.10;;;19.80;42.20;;;;;;5020768;28;20098;-81
2020/12/26 02:36:54;;;;;;;1.17;0.20;;;19.80;42.20;;;;;;5019163;28;20038;-82
2020/12/26 02:39:22;;;;;;;0.82;0.20;;;19.80;42.20;;;;;;5012335;28;20052;-82
2020/12/26 02:41:48;;;;;;;0.80;0.10;;;19.80;42.30;;;;;;5017698;28;20030;-79
2020/12/26 02:44:13;;;;;;;0.98;0.30;;;19.80;42.20;;;;;;5021207;28;20021;-82
2020/12/26 02:46:39;;;;;;;0.45;0.10;;;19.80;42.20;;;;;;5018216;28;20063;-82
2020/12/26 02:49:08;;;;;;;1.25;0.20;;;19.80;42.20;;;;;;5021280;28;20561;-81
2020/12/26 02:51:34;;;;;;;1.45;0.30;;;19.80;42.20;;;;;;5020310;28;20023;-81
2020/12/26 02:53:59;;;;;;;0.73;0.10;;;19.80;42.20;;;;;;5019313;28;20106;-81
2020/12/26 02:56:25;;;;;;;0.50;0.30;;;19.80;42.20;;;;;;5017073;28;20475;-81
2020/12/26 02:58:51;;;;;;;0.50;0.20;;;19.80;42.20;;;;;;5001534;28;20029;-83
2020/12/26 03:01:17;;;;;;;1.27;0.30;;;19.80;42.20;;;;;;5020523;28;20032;-84
2020/12/26 03:03:43;;;;;;;1.15;0.17;;;19.80;42.20;;;;;;5004618;28;20022;-84
2020/12/26 03:06:12;;;;;;;0.63;0.20;;;19.80;42.20;;;;;;5017723;28;20170;-82
2020/12/26 03:08:38;;;;;;;1.52;0.30;;;19.80;42.20;;;;;;5036408;28;20387;-82
2020/12/26 03:11:04;;;;;;;0.77;0.20;;;19.80;42.30;;;;;;5019121;28;20020;-82
2020/12/26 03:13:31;;;;;;;0.50;0.25;;;19.80;42.30;;;;;;5019521;28;20287;-82
2020/12/26 03:15:58;;;;;;;0.30;0.10;;;19.80;42.80;;;;;;5020409;28;20490;-82
2020/12/26 03:18:23;;;;;;;0.80;0.13;;;19.80;42.30;;;;;;5023665;28;20485;-81
2020/12/26 03:20:49;;;;;;;0.82;0.10;;;19.80;42.30;;;;;;5016885;28;20030;-81
2020/12/26 03:23:15;;;;;;;0.60;0.10;;;19.80;42.30;;;;;;5025247;28;20025;-81
2020/12/26 03:25:40;;;;;;;0.90;0.20;;;19.70;42.20;;;;;;5034112;28;20039;-82
2020/12/26 03:28:06;;;;;;;0.70;0.20;;;19.80;42.20;;;;;;5003089;28;20493;-83
2020/12/26 03:30:31;;;;;;;0.80;0.10;;;19.80;42.20;;;;;;5023563;28;20468;-82
2020/12/26 03:33:01;;;;;;;0.40;0.10;;;19.70;42.30;;;;;;5019185;28;20027;-83
2020/12/26 03:35:26;;;;;;;0.68;0.10;;;19.70;42.40;;;;;;5032206;28;20101;-82
2020/12/26 03:37:52;;;;;;;0.43;0.10;;;19.70;42.40;;;;;;5012970;28;20045;-83
2020/12/26 03:40:18;;;;;;;0.70;0.10;;;19.70;42.40;;;;;;5014159;28;20036;-82
2020/12/26 03:42:43;;;;;;;0.52;0.10;;;19.70;42.40;;;;;;5018899;28;20029;-83
2020/12/26 03:45:09;;;;;;;0.70;0.10;;;19.70;42.40;;;;;;5006545;28;20041;-83
2020/12/26 03:47:35;;;;;;;0.65;0.13;;;19.70;42.40;;;;;;5018161;28;20033;-83
2020/12/26 03:50:00;;;;;;;1.52;0.20;;;19.70;42.50;;;;;;5013533;28;20025;-84
2020/12/26 03:52:29;;;;;;;1.15;0.20;;;19.70;42.50;;;;;;5008073;28;20013;-83
2020/12/26 03:54:55;;;;;;;0.60;0.15;;;19.70;42.40;;;;;;5017223;28;20120;-82
2020/12/26 03:57:20;;;;;;;0.60;0.20;;;19.70;42.50;;;;;;5018790;28;20079;-82
2020/12/26 03:59:46;;;;;;;0.93;0.15;;;19.70;42.50;;;;;;5006133;28;20025;-82
2020/12/26 04:02:12;;;;;;;0.40;0.10;;;19.70;42.50;;;;;;5018395;28;20025;-82
2020/12/26 04:04:37;;;;;;;0.40;0.10;;;19.70;42.50;;;;;;5009376;28;20040;-83
2020/12/26 04:07:03;;;;;;;1.05;0.30;;;19.70;42.50;;;;;;5025279;28;20037;-83
2020/12/26 04:09:30;;;;;;;0.30;0.10;;;19.70;42.50;;;;;;5016500;28;20040;-84
2020/12/26 04:11:58;;;;;;;0.52;0.20;;;19.60;42.50;;;;;;5022444;28;20045;-83
2020/12/26 04:14:24;;;;;;;0.70;0.10;;;19.60;42.50;;;;;;5006233;28;20021;-83
2020/12/26 04:17:00;;;;;;;0.55;0.20;;;19.60;42.50;;;;;;5014974;28;20575;-82
2020/12/26 04:19:28;;;;;;;0.30;0.10;;;19.60;42.50;;;;;;5037229;28;20039;-82
2020/12/26 04:21:57;;;;;;;0.65;0.17;;;19.60;42.50;;;;;;5039141;28;20090;-82
2020/12/26 04:24:23;;;;;;;0.30;0.10;;;19.60;42.50;;;;;;5021688;28;20096;-83
2020/12/26 04:26:50;;;;;;;0.30;0.10;;;19.60;42.50;;;;;;5039384;28;20551;-84
2020/12/26 04:29:15;;;;;;;0.40;0.10;;;19.60;42.50;;;;;;5015726;28;20124;-81
2020/12/26 04:31:41;;;;;;;0.30;0.10;;;19.60;42.40;;;;;;5038085;28;20060;-83
2020/12/26 04:34:07;;;;;;;1.63;0.20;;;19.60;42.40;;;;;;5022614;28;20522;-82
2020/12/26 04:36:33;;;;;;;1.35;0.20;;;19.60;42.50;;;;;;5038814;28;20060;-82
2020/12/26 04:38:59;;;;;;;0.43;0.10;;;19.60;42.50;;;;;;5038989;28;20044;-80
2020/12/26 04:41:25;;;;;;;0.73;0.17;;;19.60;42.50;;;;;;5011335;28;20041;-84
2020/12/26 04:43:54;;;;;;;0.80;0.22;;;19.60;42.60;;;;;;5020562;28;20036;-82
2020/12/26 04:46:23;;;;;;;0.25;0.10;;;19.60;42.50;;;;;;5011517;28;20134;-83
2020/12/26 04:49:02;;;;;;;0.75;0.20;;;19.60;42.50;;;;;;5036861;28;20114;-83
2020/12/26 04:51:32;;;;;;;0.32;0.10;;;19.60;42.50;;;;;;5034628;28;20029;-83
2020/12/26 04:54:06;;;;;;;0.40;0.10;;;19.60;42.50;;;;;;5017780;28;20038;-82
2020/12/26 04:56:38;;;;;;;0.52;0.17;;;19.60;42.60;;;;;;5004460;28;20133;-83
2020/12/26 04:59:06;;;;;;;0.50;0.17;;;19.60;42.50;;;;;;5007458;28;20524;-83
2020/12/26 05:01:35;;;;;;;0.30;0.10;;;19.60;42.60;;;;;;5028155;28;20108;-81
2020/12/26 05:04:01;;;;;;;1.52;0.20;;;19.60;42.60;;;;;;5025923;28;20033;-82
2020/12/26 05:06:54;;;;;;;2.15;0.20;;;19.50;42.50;;;;;;5021566;28;20044;-83
2020/12/26 05:09:21;;;;;;;0.40;0.10;;;19.50;42.60;;;;;;5037101;28;20092;-83
2020/12/26 05:11:57;;;;;;;0.90;0.20;;;19.50;42.60;;;;;;5023185;28;20029;-84
2020/12/26 05:14:24;;;;;;;0.57;0.20;;;19.50;42.50;;;;;;5023419;28;20040;-82
2020/12/26 05:16:50;;;;;;;0.50;0.25;;;19.50;42.60;;;;;;5021966;28;20036;-82
2020/12/26 05:19:16;;;;;;;0.60;0.10;;;19.50;42.60;;;;;;5058396;28;20028;-83
2020/12/26 05:21:45;;;;;;;0.50;0.00;;;19.50;42.50;;;;;;5040650;28;20086;-82
2020/12/26 05:24:12;;;;;;;0.57;0.10;;;19.60;42.60;;;;;;5023319;28;20073;-84
2020/12/26 05:26:39;;;;;;;1.05;0.20;;;19.50;42.60;;;;;;5023987;28;20018;-82
2020/12/26 05:29:06;;;;;;;1.38;0.15;;;19.50;42.60;;;;;;5016028;28;20041;-83
2020/12/26 05:31:58;;;;;;;1.35;0.10;;;19.50;42.60;;;;;;5005055;28;20052;-83
2020/12/26 05:34:34;;;;;;;0.98;0.20;;;19.50;42.50;;;;;;5031549;28;20025;-83
2020/12/26 05:37:03;;;;;;;3.22;0.30;;;19.50;42.60;;;;;;5023853;28;20037;-83
2020/12/26 05:39:35;;;;;;;0.60;0.20;;;19.50;42.60;;;;;;5017201;28;20032;-84
2020/12/26 05:42:01;;;;;;;0.80;0.20;;;19.50;42.50;;;;;;5021372;28;20104;-82
2020/12/26 05:44:32;;;;;;;0.70;0.10;;;19.50;42.50;;;;;;5010274;28;20120;-82
2020/12/26 05:46:59;;;;;;;0.73;0.20;;;19.50;42.50;;;;;;5015194;28;20029;-83
2020/12/26 05:49:32;;;;;;;0.75;0.20;;;19.50;42.50;;;;;;5019798;28;20502;-82
2020/12/26 05:52:06;;;;;;;0.60;0.10;;;19.50;42.50;;;;;;5004068;28;20103;-82
2020/12/26 05:54:32;;;;;;;0.43;0.20;;;19.50;42.60;;;;;;5035019;28;20029;-82
2020/12/26 05:57:13;;;;;;;1.15;0.10;;;19.50;42.50;;;;;;5017288;28;20030;-81
2020/12/26 05:59:44;;;;;;;0.60;0.15;;;19.50;42.60;;;;;;5013098;28;20036;-82
2020/12/26 06:02:22;;;;;;;0.50;0.13;;;19.50;42.60;;;;;;5022333;28;20032;-82
2020/12/26 06:05:09;;;;;;;0.47;0.10;;;19.50;42.50;;;;;;5044928;28;20028;-82
2020/12/26 06:07:37;;;;;;;0.65;0.20;;;19.40;42.60;;;;;;5036935;28;20069;-82
2020/12/26 06:10:08;;;;;;;0.63;0.10;;;19.50;42.70;;;;;;5015245;28;20079;-81
2020/12/26 06:12:34;;;;;;;1.35;0.20;;;19.40;42.70;;;;;;5013918;28;20034;-82
2020/12/26 06:15:00;;;;;;;0.55;0.10;;;19.40;42.70;;;;;;5039392;28;20021;-82
2020/12/26 06:17:30;;;;;;;0.63;0.10;;;19.40;42.70;;;;;;5038648;28;20471;-84
2020/12/26 06:20:04;;;;;;;0.52;0.10;;;19.40;42.70;;;;;;5017373;28;20420;-83
2020/12/26 06:22:47;;;;;;;0.30;0.10;;;19.40;42.70;;;;;;5031978;28;20100;-83
2020/12/26 06:25:21;;;;;;;0.60;0.17;;;19.40;42.70;;;;;;5039053;28;20083;-83
2020/12/26 06:27:52;;;;;;;0.45;0.10;;;19.40;42.60;;;;;;5009286;28;20037;-82
2020/12/26 06:30:22;;;;;;;1.05;0.20;;;19.40;42.70;;;;;;5038781;28;20025;-83
2020/12/26 06:32:49;;;;;;;0.50;0.10;;;19.40;42.70;;;;;;5023345;28;20033;-83
2020/12/26 06:35:16;;;;;;;0.30;0.10;;;19.40;42.70;;;;;;5022244;28;20041;-84
2020/12/26 06:37:42;;;;;;;0.85;0.20;;;19.40;42.70;;;;;;5017887;28;20524;-81
2020/12/26 06:40:23;;;;;;;0.40;0.15;;;19.40;42.70;;;;;;5038482;28;20024;-83
2020/12/26 06:42:48;;;;;;;0.60;0.13;;;19.40;42.70;;;;;;5021779;28;20040;-82
2020/12/26 06:45:28;;;;;;;0.52;0.10;;;19.40;42.80;;;;;;5022838;28;20044;-82
2020/12/26 06:47:54;;;;;;;0.50;0.17;;;19.40;42.70;;;;;;5037992;28;20037;-83
2020/12/26 06:50:21;;;;;;;1.05;0.10;;;19.40;42.70;;;;;;5004814;28;20099;-81
2020/12/26 06:52:47;;;;;;;0.90;0.20;;;19.40;42.60;;;;;;5008677;28;20029;-83
2020/12/26 06:55:36;;;;;;;1.38;0.10;;;19.30;42.60;;;;;;5018124;28;20021;-82
2020/12/26 06:58:02;;;;;;;0.93;0.10;;;19.30;42.60;;;;;;5020493;28;20427;-82
2020/12/26 07:00:29;;;;;;;0.20;0.10;;;19.30;42.70;;;;;;5016332;28;20095;-83
2020/12/26 07:03:14;;;;;;;0.60;0.10;;;19.30;42.70;;;;;;5021964;28;20108;-82
2020/12/26 07:05:39;;;;;;;0.40;0.10;;;19.30;42.80;;;;;;5043079;28;20175;-81
2020/12/26 07:08:05;;;;;;;0.60;0.20;;;19.30;42.80;;;;;;5032761;28;20010;-81
2020/12/26 07:10:34;;;;;;;0.50;0.10;;;19.30;42.70;;;;;;5025367;28;20017;-82
2020/12/26 07:13:00;;;;;;;0.80;0.10;;;19.30;42.70;;;;;;5027385;28;20033;-80
2020/12/26 07:15:32;;;;;;;0.38;0.10;;;19.30;42.70;;;;;;5033368;28;20032;-84
2020/12/26 07:18:23;;;;;;;0.77;0.20;;;19.30;42.70;;;;;;5022663;28;20028;-82
2020/12/26 07:20:50;;;;;;;0.90;0.13;;;19.30;42.80;;;;;;5021757;28;20093;-82
2020/12/26 07:23:16;;;;;;;0.88;0.20;;;19.30;42.80;;;;;;5033972;28;20029;-82
2020/12/26 07:25:42;;;;;;;0.60;0.10;;;19.30;42.80;;;;;;5013414;28;20029;-80
2020/12/26 07:28:07;;;;;;;1.05;0.10;;;19.30;42.80;;;;;;5008728;28;20156;-82
2020/12/26 07:30:36;;;;;;;0.50;0.10;;;19.30;42.80;;;;;;5022112;28;20448;-83
2020/12/26 07:33:02;;;;;;;0.55;0.10;;;19.30;42.80;;;;;;5038740;28;20025;-82
2020/12/26 07:35:33;;;;;;;0.57;0.10;;;19.30;42.80;;;;;;5014606;28;20037;-82
2020/12/26 07:38:03;;;;;;;0.43;0.10;;;19.30;42.80;;;;;;5033325;28;20021;-84
2020/12/26 07:40:30;;;;;;;1.10;0.20;;;19.30;42.80;;;;;;5021459;28;20156;-82
2020/12/26 07:42:57;;;;;;;0.75;0.20;;;19.30;42.80;;;;;;5017835;28;20035;-82
2020/12/26 07:45:24;;;;;;;0.90;0.20;;;19.30;42.90;;;;;;5035903;28;20035;-80
2020/12/26 07:47:55;;;;;;;0.47;0.10;;;19.20;42.90;;;;;;5018597;28;20030;-82
2020/12/26 07:50:26;;;;;;;0.50;0.20;;;19.30;42.80;;;;;;5003778;28;20026;-82
2020/12/26 07:52:59;;;;;;;0.60;0.15;;;19.20;42.80;;;;;;5039658;28;20029;-82
2020/12/26 07:55:29;;;;;;;0.38;0.10;;;19.30;42.80;;;;;;5028720;28;20048;-81
2020/12/26 07:58:05;;;;;;;0.70;0.10;;;19.30;42.80;;;;;;5041913;28;20051;-82
2020/12/26 08:00:33;;;;;;;0.52;0.20;;;19.20;42.80;;;;;;5023343;28;20029;-81
2020/12/26 08:03:02;;;;;;;0.55;0.10;;;19.20;42.70;;;;;;5035665;28;20028;-82
2020/12/26 08:05:34;;;;;;;0.40;0.10;;;19.20;42.70;;;;;;5040746;28;20029;-81
2020/12/26 08:08:00;;;;;;;0.80;0.20;;;19.20;42.80;;;;;;5012706;28;20025;-81
2020/12/26 08:10:27;;;;;;;1.10;0.30;;;19.20;42.90;;;;;;5024116;28;20068;-81
2020/12/26 08:12:57;;;;;;;1.00;0.10;;;19.20;43.10;;;;;;5041759;28;20021;-81
2020/12/26 08:15:28;;;;;;;1.05;0.20;;;19.10;43.30;;;;;;5039640;28;20483;-81
2020/12/26 08:17:56;;;;;;;0.50;0.10;;;19.20;43.60;;;;;;5034809;28;20037;-82
2020/12/26 08:20:23;;;;;;;0.28;0.10;;;19.10;43.80;;;;;;5017595;28;20052;-82
2020/12/26 08:22:49;;;;;;;0.50;0.10;;;19.20;43.60;;;;;;5022582;28;20499;-80
2020/12/26 08:25:17;;;;;;;0.82;0.13;;;19.10;43.60;;;;;;5017004;28;20044;-81
2020/12/26 08:27:44;;;;;;;0.63;0.10;;;19.20;43.70;;;;;;5026227;28;20078;-83
2020/12/26 08:30:19;;;;;;;0.70;0.30;;;19.20;43.60;;;;;;5035368;28;20014;-81
2020/12/26 08:32:55;;;;;;;0.98;0.32;;;19.10;43.50;;;;;;5023130;28;20024;-82
2020/12/26 08:35:25;;;;;;;0.65;0.20;;;19.10;43.50;;;;;;5006568;28;20025;-82
2020/12/26 08:38:00;;;;;;;1.13;0.30;;;19.20;43.60;;;;;;5015413;28;20025;-82
2020/12/26 08:40:27;;;;;;;0.60;0.20;;;19.20;43.50;;;;;;5011128;28;20029;-83
2020/12/26 08:42:52;;;;;;;1.23;0.20;;;19.10;43.40;;;;;;5018092;28;20096;-84
2020/12/26 08:45:30;;;;;;;1.17;0.28;;;19.20;43.40;;;;;;5041878;28;20063;-82
2020/12/26 08:48:15;;;;;;;1.10;0.20;;;19.10;43.40;;;;;;5014698;28;20102;-83
2020/12/26 08:50:41;;;;;;;0.68;0.28;;;19.20;43.40;;;;;;5034107;28;20083;-83
2020/12/26 08:53:09;;;;;;;0.70;0.30;;;19.20;43.30;;;;;;5015556;28;20025;-83
2020/12/26 08:55:45;;;;;;;1.67;0.45;;;19.20;43.20;;;;;;5025386;28;20016;-83
2020/12/26 08:58:31;;;;;;;1.40;0.30;;;19.10;43.10;;;;;;5030411;28;20021;-83
2020/12/26 09:00:57;;;;;;;1.48;0.57;;;19.20;43.00;;;;;;5023563;28;20028;-83
2020/12/26 09:03:24;;;;;;;0.63;0.20;;;19.10;42.80;;;;;;5024955;28;20503;-83
2020/12/26 09:05:51;;;;;;;1.08;0.40;;;19.10;42.90;;;;;;5014245;28;20147;-84
2020/12/26 09:08:18;;;;;;;2.00;0.43;;;19.20;42.80;;;;;;5015750;28;20029;-84
2020/12/26 09:10:54;;;;;;;1.35;0.30;;;19.10;42.80;;;;;;5018706;28;20029;-84
2020/12/26 09:13:19;;;;;;;1.35;0.20;;;19.10;42.80;;;;;;5015219;28;20188;-84
2020/12/26 09:15:51;;;;;;;1.00;0.40;;;19.20;42.90;;;;;;5024891;28;20036;-85
2020/12/26 09:18:25;;;;;;;2.85;0.40;;;19.20;42.80;;;;;;5025048;28;20021;-84
2020/12/26 09:20:56;;;;;;;1.00;0.22;;;19.10;42.80;;;;;;5018082;28;20029;-85
2020/12/26 09:23:23;;;;;;;1.33;0.40;;;19.20;42.80;;;;;;5028053;28;20108;-83
2020/12/26 09:25:50;;;;;;;3.03;0.50;;;19.20;42.80;;;;;;5010410;28;20033;-84
2020/12/26 09:28:17;;;;;;;0.95;0.40;;;19.10;42.70;;;;;;5023879;28;20079;-84
2020/12/26 09:30:43;;;;;;;2.50;0.50;;;19.10;42.70;;;;;;5025339;28;20124;-84
2020/12/26 09:33:09;;;;;;;1.80;0.30;;;19.10;42.70;;;;;;5041201;28;20061;-84
2020/12/26 09:35:35;;;;;;;0.70;0.45;;;19.20;42.80;;;;;;5031052;28;20120;-83
2020/12/26 09:38:01;;;;;;;1.60;0.50;;;19.10;42.70;;;;;;5013691;28;20344;-85
2020/12/26 09:40:35;;;;;;;1.98;0.32;;;19.10;42.70;;;;;;5016558;28;20324;-86
2020/12/26 09:43:04;;;;;;;1.10;0.50;;;19.20;42.90;;;;;;5010889;28;20125;-83
2020/12/26 09:45:30;;;;;;;0.95;0.35;;;19.10;43.00;;;;;;5031925;28;20039;-84
2020/12/26 09:47:57;;;;;;;1.17;0.50;;;19.20;43.00;;;;;;5018627;28;20053;-83
2020/12/26 09:50:24;;;;;;;1.50;0.40;;;19.30;42.90;;;;;;5038145;28;20064;-85
2020/12/26 09:52:50;;;;;;;2.90;0.50;;;19.30;42.70;;;;;;5024265;28;20032;-84
2020/12/26 09:55:16;;;;;;;1.08;0.60;;;19.50;42.60;;;;;;5023787;28;20542;-86
2020/12/26 09:57:41;;;;;;;0.95;0.70;;;19.60;42.40;;;;;;5023013;28;20033;-84
2020/12/26 10:00:08;;;;;;;1.00;0.45;;;19.70;42.20;;;;;;5040495;28;20085;-84
2020/12/26 10:02:35;;;;;;;2.17;0.60;;;19.80;42.10;;;;;;5012238;28;20116;-85
2020/12/26 10:05:04;;;;;;;2.00;0.80;;;19.80;41.90;;;;;;5017078;28;20060;-84
2020/12/26 10:07:31;;;;;;;1.45;0.80;;;19.90;41.90;;;;;;5023205;28;20033;-84
2020/12/26 10:09:57;;;;;;;1.40;0.88;;;20.00;41.80;;;;;;5020338;28;20423;-84
2020/12/26 10:12:22;;;;;;;1.92;0.82;;;20.00;41.70;;;;;;5040359;28;20033;-84
2020/12/26 10:14:48;;;;;;;1.33;0.73;;;20.00;41.70;;;;;;5020306;28;20041;-84
2020/12/26 10:17:14;;;;;;;1.85;0.68;;;20.10;41.70;;;;;;5019877;28;20637;-84
2020/12/26 10:19:39;;;;;;;2.17;1.02;;;20.00;41.70;;;;;;5023547;28;20033;-84
2020/12/26 10:22:05;;;;;;;1.33;0.75;;;20.10;41.70;;;;;;5035088;28;20134;-82
2020/12/26 10:24:31;;;;;;;1.60;0.82;;;20.10;41.70;;;;;;5013501;28;20033;-83
2020/12/26 10:26:56;;;;;;;1.50;0.93;;;20.10;41.70;;;;;;5017251;28;20036;-83
2020/12/26 10:29:22;;;;;;;1.83;0.98;;;20.10;41.80;;;;;;5024734;28;20029;-83
2020/12/26 10:31:47;;;;;;;2.30;0.90;;;20.10;41.80;;;;;;5034813;28;20068;-82
2020/12/26 10:34:13;;;;;;;1.63;1.10;;;20.10;41.80;;;;;;5015276;28;20017;-84
2020/12/26 10:36:42;;;;;;;1.70;1.00;;;20.10;41.90;;;;;;5024437;28;20063;-83
2020/12/26 10:39:08;;;;;;;2.17;1.17;;;20.00;41.90;;;;;;5022956;28;20359;-84
2020/12/26 10:41:34;;;;;;;1.63;0.75;;;20.00;42.00;;;;;;5009346;28;20224;-83
2020/12/26 10:43:59;;;;;;;3.20;0.88;;;20.00;42.00;;;;;;5019023;28;20116;-84
2020/12/26 10:46:25;;;;;;;1.25;0.88;;;20.00;42.00;;;;;;5023796;28;20108;-85
2020/12/26 10:48:50;;;;;;;2.60;0.73;;;20.00;42.10;;;;;;5021806;28;20025;-84
2020/12/26 10:51:16;;;;;;;4.18;0.75;;;20.00;42.20;;;;;;5011698;28;20483;-85
2020/12/26 10:53:42;;;;;;;1.35;0.70;;;19.90;42.70;;;;;;5000330;28;20036;-85
2020/12/26 10:56:08;;;;;;;1.20;0.75;;;19.90;42.20;;;;;;5024211;28;20115;-85
2020/12/26 10:58:34;;;;;;;1.85;1.05;;;19.90;42.30;;;;;;5024306;28;20467;-84
2020/12/26 11:00:59;;;;;;;1.30;0.90;;;19.90;42.30;;;;;;5023377;28;20032;-84
2020/12/26 11:03:25;;;;;;;2.13;1.20;;;19.90;42.30;;;;;;5019723;28;20539;-82
2020/12/26 11:05:51;;;;;;;2.15;1.05;;;19.90;42.30;;;;;;5030650;28;20029;-82
2020/12/26 11:08:23;;;;;;;2.00;1.15;;;19.80;42.30;;;;;;5033374;28;20044;-82
2020/12/26 11:10:48;;;;;;;1.63;1.35;;;19.80;42.40;;;;;;5014859;28;20029;-83
2020/12/26 11:13:14;;;;;;;1.90;1.38;;;19.80;42.40;;;;;;5015459;28;20113;-81
2020/12/26 11:15:39;;;;;;;1.48;1.08;;;19.80;42.50;;;;;;5019898;28;20025;-83
2020/12/26 11:18:05;;;;;;;2.03;1.25;;;19.80;42.50;;;;;;5035895;28;20032;-84
2020/12/26 11:20:31;;;;;;;3.03;1.42;;;19.80;42.60;;;;;;5036429;28;20060;-83
2020/12/26 11:22:56;;;;;;;1.67;0.95;;;19.80;42.60;;;;;;5019620;28;20086;-82
2020/12/26 11:25:22;;;;;;;2.17;1.23;;;19.70;42.60;;;;;;5019089;28;20013;-83
2020/12/26 11:27:47;;;;;;;2.17;1.52;;;19.80;42.60;;;;;;5014746;28;20493;-81
2020/12/26 11:30:13;;;;;;;2.63;1.30;;;19.70;42.60;;;;;;5033066;28;20479;-84
2020/12/26 11:32:39;;;;;;;1.90;1.13;;;19.70;42.60;;;;;;5032640;28;20043;-81
2020/12/26 11:35:04;;;;;;;2.08;1.60;;;19.70;42.60;;;;;;5011130;28;20025;-82
2020/12/26 11:37:32;;;;;;;1.33;1.13;;;19.70;42.60;;;;;;5010184;28;20511;-82
2020/12/26 11:39:58;;;;;;;1.88;1.42;;;19.70;42.70;;;;;;5030954;28;20036;-82
2020/12/26 11:42:24;;;;;;;1.98;1.52;;;19.70;42.70;;;;;;5018183;28;20049;-81
2020/12/26 11:44:49;;;;;;;1.38;0.95;;;19.60;42.70;;;;;;5018476;28;20395;-82
2020/12/26 11:47:15;;;;;;;2.42;1.40;;;19.70;42.70;;;;;;5015992;28;20460;-81
2020/12/26 11:49:41;;;;;;;4.05;1.58;;;19.70;43.30;;;;;;5033585;28;20135;-81
2020/12/26 11:52:06;;;;;;;1.55;1.00;;;19.70;42.80;;;;;;5011311;28;20030;-84
2020/12/26 11:54:32;;;;;;;1.95;1.25;;;19.60;42.70;;;;;;5017068;28;20044;-82
2020/12/26 11:56:58;;;;;;;1.30;1.08;;;19.60;42.70;;;;;;5018803;28;20597;-82
2020/12/26 11:59:23;;;;;;;2.80;1.55;;;19.60;42.70;;;;;;5010801;28;20036;-82
2020/12/26 12:01:54;;;;;;;2.25;1.40;;;19.60;42.80;;;;;;5010224;28;20029;-81
2020/12/26 12:04:19;;;;;;;3.17;1.23;;;19.60;42.80;;;;;;5031415;23;20048;-45
2020/12/26 12:06:46;;;;;;;2.28;0.98;;;19.60;42.80;;;;;;5039861;28;20470;-44
2020/12/26 12:09:12;;;;;;;1.13;0.90;;;19.60;42.80;;;;;;5054879;28;20029;-45
2020/12/26 12:11:37;;;;;;;2.25;1.35;;;19.60;42.80;;;;;;5054582;28;20090;-46
2020/12/26 12:14:03;;;;;;;1.83;1.30;;;19.60;42.80;;;;;;5049463;28;20021;-46
2020/12/26 12:16:29;;;;;;;1.73;1.20;;;19.50;42.80;;;;;;5051326;28;20059;-45
2020/12/26 12:18:55;;;;;;;3.05;1.63;;;19.50;42.80;;;;;;5054625;28;20039;-46
2020/12/26 12:21:21;;;;;;;2.38;1.27;;;19.50;43.40;;;;;;5051157;28;20037;-45
2020/12/26 12:23:46;;;;;;;2.28;1.40;;;19.50;42.90;;;;;;5053937;28;20033;-45
2020/12/26 12:26:22;;;;;;;2.17;1.55;;;19.50;42.90;;;;;;5067182;28;20029;-45
2020/12/26 12:28:48;;;;;;;2.45;1.13;;;19.50;42.90;;;;;;5053499;28;20028;-43
2020/12/26 12:31:14;;;;;;;1.70;1.10;;;19.50;42.90;;;;;;5067295;28;20025;-46
2020/12/26 12:33:39;;;;;;;2.53;1.67;;;19.50;42.90;;;;;;5045010;28;20020;-46
2020/12/26 12:36:05;;;;;;;1.63;1.13;;;19.50;42.90;;;;;;5061001;28;20029;-46
2020/12/26 12:38:31;;;;;;;1.30;1.13;;;19.50;42.90;;;;;;5047598;28;20082;-45
2020/12/26 12:40:56;;;;;;;1.70;1.15;;;19.50;42.90;;;;;;5050789;28;20032;-45
2020/12/26 12:43:22;;;;;;;1.60;1.02;;;19.50;42.90;;;;;;5051542;28;20028;-45
2020/12/26 12:45:47;;;;;;;1.85;0.93;;;19.50;42.90;;;;;;5052406;28;20032;-46
2020/12/26 12:48:13;;;;;;;2.67;1.38;;;19.50;43.00;;;;;;5048468;28;20070;-46
2020/12/26 12:50:38;;;;;;;2.33;1.05;;;19.60;42.80;;;;;;5046744;28;20025;-45